sensor_id;sensor_type;location;lat;lon;timestamp;pressure;altitude;pressure_sealevel;temperature;humidity
46598;BME280;32318;48.858;8.252;2024-03-08T00:00:45;100134.00;;;5.00;77.52
46598;BME280;32318;48.858;8.252;2024-03-08T00:08:45;100139.81;;;4.94;77.89
46598;BME280;32318;48.858;8.252;2024-03-08T00:16:46;100133.13;;;5.11;77.02
46598;BME280;32318;48.858;8.252;2024-03-08T00:24:46;100120.28;;;5.07;76.61
46598;BME280;32318;48.858;8.252;2024-03-08T00:32:46;100109.44;;;4.89;77.65
46598;BME280;32318;48.858;8.252;2024-03-08T00:40:47;100112.88;;;4.79;77.78
46598;BME280;32318;48.858;8.252;2024-03-08T00:48:47;100102.63;;;4.65;78.15
46598;BME280;32318;48.858;8.252;2024-03-08T00:56:47;100100.94;;;4.43;79.05
46598;BME280;32318;48.858;8.252;2024-03-08T01:04:47;100085.66;;;4.46;78.17
46598;BME280;32318;48.858;8.252;2024-03-08T01:12:48;100086.19;;;4.40;78.46
46598;BME280;32318;48.858;8.252;2024-03-08T01:20:49;100068.97;;;4.46;78.00
46598;BME280;32318;48.858;8.252;2024-03-08T01:28:50;100053.03;;;4.36;78.14
46598;BME280;32318;48.858;8.252;2024-03-08T01:36:50;100048.88;;;4.43;78.41
46598;BME280;32318;48.858;8.252;2024-03-08T01:44:50;100044.72;;;4.40;78.52
46598;BME280;32318;48.858;8.252;2024-03-08T01:52:52;100029.31;;;4.46;78.97
46598;BME280;32318;48.858;8.252;2024-03-08T02:00:52;100016.72;;;4.38;78.56
46598;BME280;32318;48.858;8.252;2024-03-08T02:08:53;99997.25;;;4.39;78.55
46598;BME280;32318;48.858;8.252;2024-03-08T02:16:54;99992.63;;;4.31;79.17
46598;BME280;32318;48.858;8.252;2024-03-08T02:25:00;99985.59;;;4.20;78.43
46598;BME280;32318;48.858;8.252;2024-03-08T02:33:02;99976.75;;;4.10;77.56
46598;BME280;32318;48.858;8.252;2024-03-08T02:41:04;99976.00;;;3.98;77.53
46598;BME280;32318;48.858;8.252;2024-03-08T02:49:04;99963.88;;;3.96;77.42
46598;BME280;32318;48.858;8.252;2024-03-08T02:57:05;99960.91;;;3.89;77.46
46598;BME280;32318;48.858;8.252;2024-03-08T03:05:07;99954.59;;;3.80;77.32
46598;BME280;32318;48.858;8.252;2024-03-08T03:13:09;99947.94;;;3.65;75.66
46598;BME280;32318;48.858;8.252;2024-03-08T03:21:09;99932.88;;;3.55;76.55
46598;BME280;32318;48.858;8.252;2024-03-08T03:29:10;99930.25;;;3.55;77.77
46598;BME280;32318;48.858;8.252;2024-03-08T03:37:11;99922.91;;;3.59;78.15
46598;BME280;32318;48.858;8.252;2024-03-08T03:45:14;99916.63;;;3.60;78.33
46598;BME280;32318;48.858;8.252;2024-03-08T03:53:14;99913.72;;;3.42;76.94
46598;BME280;32318;48.858;8.252;2024-03-08T04:01:14;99913.97;;;3.39;78.08
46598;BME280;32318;48.858;8.252;2024-03-08T04:09:15;99905.22;;;3.38;77.37
46598;BME280;32318;48.858;8.252;2024-03-08T04:17:15;99899.88;;;3.28;77.07
46598;BME280;32318;48.858;8.252;2024-03-08T04:25:15;99891.97;;;3.17;77.15
46598;BME280;32318;48.858;8.252;2024-03-08T04:33:15;99883.72;;;3.10;77.42
46598;BME280;32318;48.858;8.252;2024-03-08T04:41:18;99884.22;;;3.16;76.96
46598;BME280;32318;48.858;8.252;2024-03-08T04:49:18;99864.91;;;3.04;77.42
46598;BME280;32318;48.858;8.252;2024-03-08T04:57:18;99874.25;;;3.08;77.80
46598;BME280;32318;48.858;8.252;2024-03-08T05:05:19;99871.56;;;2.98;77.38
46598;BME280;32318;48.858;8.252;2024-03-08T05:13:19;99863.91;;;2.83;77.07
46598;BME280;32318;48.858;8.252;2024-03-08T05:21:19;99863.44;;;2.78;77.12
46598;BME280;32318;48.858;8.252;2024-03-08T05:29:20;99862.63;;;2.66;76.96
46598;BME280;32318;48.858;8.252;2024-03-08T05:37:20;99864.69;;;2.51;77.79
46598;BME280;32318;48.858;8.252;2024-03-08T05:45:21;99863.13;;;2.49;77.70
46598;BME280;32318;48.858;8.252;2024-03-08T05:53:21;99848.50;;;2.45;77.94
46598;BME280;32318;48.858;8.252;2024-03-08T06:01:21;99851.41;;;2.30;78.19
46598;BME280;32318;48.858;8.252;2024-03-08T06:09:21;99840.50;;;2.24;78.92
46598;BME280;32318;48.858;8.252;2024-03-08T06:17:23;99842.41;;;2.22;79.41
46598;BME280;32318;48.858;8.252;2024-03-08T06:25:25;99849.97;;;2.15;80.12
46598;BME280;32318;48.858;8.252;2024-03-08T06:33:25;99842.75;;;2.17;80.10
46598;BME280;32318;48.858;8.252;2024-03-08T06:41:26;99842.78;;;2.28;80.54
46598;BME280;32318;48.858;8.252;2024-03-08T06:49:27;99844.91;;;2.46;79.92
46598;BME280;32318;48.858;8.252;2024-03-08T06:57:27;99842.28;;;2.57;79.88
46598;BME280;32318;48.858;8.252;2024-03-08T07:05:29;99834.56;;;2.77;79.49
46598;BME280;32318;48.858;8.252;2024-03-08T07:13:30;99831.84;;;3.00;79.42
46598;BME280;32318;48.858;8.252;2024-03-08T07:21:31;99827.19;;;3.24;78.54
46598;BME280;32318;48.858;8.252;2024-03-08T07:29:32;99833.06;;;3.49;77.75
46598;BME280;32318;48.858;8.252;2024-03-08T07:37:33;99830.03;;;3.75;76.87
46598;BME280;32318;48.858;8.252;2024-03-08T07:45:34;99826.00;;;4.02;75.13
46598;BME280;32318;48.858;8.252;2024-03-08T07:53:35;99815.06;;;4.16;75.17
46598;BME280;32318;48.858;8.252;2024-03-08T08:01:36;99811.13;;;4.32;74.81
46598;BME280;32318;48.858;8.252;2024-03-08T08:09:36;99801.03;;;4.57;73.97
46598;BME280;32318;48.858;8.252;2024-03-08T08:17:38;99806.59;;;4.73;73.44
46598;BME280;32318;48.858;8.252;2024-03-08T08:25:38;99797.28;;;4.89;73.24
46598;BME280;32318;48.858;8.252;2024-03-08T08:33:39;99791.03;;;5.19;72.60
46598;BME280;32318;48.858;8.252;2024-03-08T08:41:40;99775.69;;;5.42;71.63
46598;BME280;32318;48.858;8.252;2024-03-08T08:49:41;99774.19;;;5.77;70.44
46598;BME280;32318;48.858;8.252;2024-03-08T08:57:43;99768.03;;;5.87;70.39
46598;BME280;32318;48.858;8.252;2024-03-08T09:05:44;99767.78;;;6.18;68.88
46598;BME280;32318;48.858;8.252;2024-03-08T09:13:44;99766.25;;;6.15;68.48
46598;BME280;32318;48.858;8.252;2024-03-08T09:21:46;99760.22;;;6.23;68.12
46598;BME280;32318;48.858;8.252;2024-03-08T09:29:47;99753.81;;;6.43;66.78
46598;BME280;32318;48.858;8.252;2024-03-08T09:37:47;99754.13;;;6.40;67.16
46598;BME280;32318;48.858;8.252;2024-03-08T09:45:50;99743.16;;;6.53;66.30
46598;BME280;32318;48.858;8.252;2024-03-08T09:53:51;99729.66;;;6.65;65.73
46598;BME280;32318;48.858;8.252;2024-03-08T10:01:54;99716.25;;;6.66;66.02
46598;BME280;32318;48.858;8.252;2024-03-08T10:09:59;99706.53;;;6.75;67.21
46598;BME280;32318;48.858;8.252;2024-03-08T10:18:01;99693.63;;;6.98;67.22
46598;BME280;32318;48.858;8.252;2024-03-08T10:26:14;99686.88;;;7.30;65.65
46598;BME280;32318;48.858;8.252;2024-03-08T10:34:14;99673.34;;;7.42;65.25
46598;BME280;32318;48.858;8.252;2024-03-08T10:42:16;99671.44;;;7.60;64.47
46598;BME280;32318;48.858;8.252;2024-03-08T10:50:22;99664.34;;;7.69;64.73
46598;BME280;32318;48.858;8.252;2024-03-08T10:58:26;99656.94;;;7.89;63.41
46598;BME280;32318;48.858;8.252;2024-03-08T11:06:50;99652.59;;;7.80;64.85
46598;BME280;32318;48.858;8.252;2024-03-08T11:14:53;99643.38;;;8.09;62.89
46598;BME280;32318;48.858;8.252;2024-03-08T11:22:55;99638.56;;;8.29;62.09
46598;BME280;32318;48.858;8.252;2024-03-08T11:39:01;99628.84;;;8.54;60.28
46598;BME280;32318;48.858;8.252;2024-03-08T11:47:10;99610.03;;;8.47;61.25
46598;BME280;32318;48.858;8.252;2024-03-08T11:55:11;99598.88;;;8.69;61.78
46598;BME280;32318;48.858;8.252;2024-03-08T12:03:12;99587.59;;;8.67;60.18
46598;BME280;32318;48.858;8.252;2024-03-08T12:11:13;99578.94;;;8.65;60.35
46598;BME280;32318;48.858;8.252;2024-03-08T12:19:14;99573.59;;;8.73;60.01
46598;BME280;32318;48.858;8.252;2024-03-08T12:27:19;99566.13;;;8.76;59.52
46598;BME280;32318;48.858;8.252;2024-03-08T12:35:21;99542.84;;;8.78;58.41
46598;BME280;32318;48.858;8.252;2024-03-08T12:43:22;99541.34;;;8.68;59.83
46598;BME280;32318;48.858;8.252;2024-03-08T12:51:22;99530.66;;;8.76;59.17
46598;BME280;32318;48.858;8.252;2024-03-08T12:59:23;99509.66;;;8.98;58.00
46598;BME280;32318;48.858;8.252;2024-03-08T13:07:24;99495.91;;;8.86;59.17
46598;BME280;32318;48.858;8.252;2024-03-08T13:15:28;99489.53;;;8.95;58.62
46598;BME280;32318;48.858;8.252;2024-03-08T13:23:30;99463.44;;;8.90;58.53
46598;BME280;32318;48.858;8.252;2024-03-08T13:31:30;99459.75;;;9.00;58.30
46598;BME280;32318;48.858;8.252;2024-03-08T13:39:33;99444.75;;;8.99;58.30
46598;BME280;32318;48.858;8.252;2024-03-08T13:47:40;99442.25;;;9.05;57.65
46598;BME280;32318;48.858;8.252;2024-03-08T13:55:41;99445.81;;;9.21;56.97
46598;BME280;32318;48.858;8.252;2024-03-08T14:03:41;99429.47;;;9.24;57.18
46598;BME280;32318;48.858;8.252;2024-03-08T14:11:42;99418.56;;;9.42;56.13
46598;BME280;32318;48.858;8.252;2024-03-08T14:19:45;99393.13;;;9.54;54.50
46598;BME280;32318;48.858;8.252;2024-03-08T14:27:46;99385.25;;;9.61;54.07
46598;BME280;32318;48.858;8.252;2024-03-08T14:35:46;99367.31;;;9.78;54.36
46598;BME280;32318;48.858;8.252;2024-03-08T14:43:48;99350.69;;;9.91;54.50
46598;BME280;32318;48.858;8.252;2024-03-08T14:51:48;99337.63;;;9.96;54.14
46598;BME280;32318;48.858;8.252;2024-03-08T14:59:49;99323.47;;;10.11;55.25
46598;BME280;32318;48.858;8.252;2024-03-08T15:07:50;99322.56;;;10.33;54.42
46598;BME280;32318;48.858;8.252;2024-03-08T15:15:50;99301.41;;;10.47;53.63
46598;BME280;32318;48.858;8.252;2024-03-08T15:23:57;99283.00;;;10.52;54.08
46598;BME280;32318;48.858;8.252;2024-03-08T15:31:57;99272.31;;;10.52;54.69
46598;BME280;32318;48.858;8.252;2024-03-08T15:39:58;99256.81;;;10.62;54.77
46598;BME280;32318;48.858;8.252;2024-03-08T15:47:58;99242.09;;;10.66;54.56
46598;BME280;32318;48.858;8.252;2024-03-08T15:55:58;99237.97;;;10.64;55.32
46598;BME280;32318;48.858;8.252;2024-03-08T16:03:59;99233.88;;;10.46;55.70
46598;BME280;32318;48.858;8.252;2024-03-08T16:11:59;99232.00;;;10.47;55.63
46598;BME280;32318;48.858;8.252;2024-03-08T16:19:59;99223.00;;;10.33;55.71
46598;BME280;32318;48.858;8.252;2024-03-08T16:28:00;99226.75;;;10.02;56.77
46598;BME280;32318;48.858;8.252;2024-03-08T16:36:00;99226.19;;;9.77;57.51
46598;BME280;32318;48.858;8.252;2024-03-08T16:44:02;99222.06;;;9.74;57.32
46598;BME280;32318;48.858;8.252;2024-03-08T16:52:04;99213.25;;;9.58;57.74
46598;BME280;32318;48.858;8.252;2024-03-08T17:00:06;99206.44;;;9.41;58.27
46598;BME280;32318;48.858;8.252;2024-03-08T17:08:06;99202.00;;;9.18;59.14
46598;BME280;32318;48.858;8.252;2024-03-08T17:16:07;99203.53;;;9.13;58.77
46598;BME280;32318;48.858;8.252;2024-03-08T17:24:07;99195.16;;;9.01;58.70
46598;BME280;32318;48.858;8.252;2024-03-08T17:32:11;99195.03;;;8.94;59.16
46598;BME280;32318;48.858;8.252;2024-03-08T17:40:13;99196.50;;;8.97;58.75
46598;BME280;32318;48.858;8.252;2024-03-08T17:48:17;99201.56;;;8.91;58.87
46598;BME280;32318;48.858;8.252;2024-03-08T17:56:18;99208.03;;;8.89;58.91
46598;BME280;32318;48.858;8.252;2024-03-08T18:04:19;99213.75;;;8.62;59.86
46598;BME280;32318;48.858;8.252;2024-03-08T18:12:23;99201.53;;;8.45;60.55
46598;BME280;32318;48.858;8.252;2024-03-08T18:20:26;99200.38;;;8.47;60.46
46598;BME280;32318;48.858;8.252;2024-03-08T18:28:30;99201.31;;;8.55;60.66
46598;BME280;32318;48.858;8.252;2024-03-08T18:36:30;99210.47;;;8.52;60.86
46598;BME280;32318;48.858;8.252;2024-03-08T18:44:31;99195.66;;;8.58;60.97
46598;BME280;32318;48.858;8.252;2024-03-08T18:52:31;99188.22;;;8.45;61.04
46598;BME280;32318;48.858;8.252;2024-03-08T19:00:32;99184.84;;;8.28;61.80
46598;BME280;32318;48.858;8.252;2024-03-08T19:08:41;99179.53;;;8.28;61.85
46598;BME280;32318;48.858;8.252;2024-03-08T19:16:45;99180.06;;;8.15;62.12
46598;BME280;32318;48.858;8.252;2024-03-08T19:24:46;99187.69;;;7.87;63.55
46598;BME280;32318;48.858;8.252;2024-03-08T19:32:48;99181.66;;;7.61;64.39
46598;BME280;32318;48.858;8.252;2024-03-08T19:40:49;99183.03;;;7.41;65.41
46598;BME280;32318;48.858;8.252;2024-03-08T19:48:52;99169.63;;;7.26;66.10
46598;BME280;32318;48.858;8.252;2024-03-08T19:56:56;99175.63;;;7.11;66.56
46598;BME280;32318;48.858;8.252;2024-03-08T20:04:56;99181.44;;;7.06;66.92
46598;BME280;32318;48.858;8.252;2024-03-08T20:12:57;99187.41;;;6.92;67.44
46598;BME280;32318;48.858;8.252;2024-03-08T20:20:57;99190.06;;;6.84;68.01
46598;BME280;32318;48.858;8.252;2024-03-08T20:28:59;99190.72;;;6.78;67.80
46598;BME280;32318;48.858;8.252;2024-03-08T20:36:59;99186.41;;;6.60;69.58
46598;BME280;32318;48.858;8.252;2024-03-08T20:45:00;99179.78;;;6.56;68.34
46598;BME280;32318;48.858;8.252;2024-03-08T20:53:05;99182.06;;;6.34;70.67
46598;BME280;32318;48.858;8.252;2024-03-08T21:01:10;99175.09;;;6.33;69.19
46598;BME280;32318;48.858;8.252;2024-03-08T21:09:11;99168.78;;;6.26;68.66
46598;BME280;32318;48.858;8.252;2024-03-08T21:17:12;99169.91;;;6.07;68.84
46598;BME280;32318;48.858;8.252;2024-03-08T21:25:13;99151.97;;;5.92;69.06
46598;BME280;32318;48.858;8.252;2024-03-08T21:33:16;99150.41;;;5.81;69.84
46598;BME280;32318;48.858;8.252;2024-03-08T21:41:17;99151.53;;;5.71;71.35
46598;BME280;32318;48.858;8.252;2024-03-08T21:49:17;99149.75;;;5.71;70.34
46598;BME280;32318;48.858;8.252;2024-03-08T21:57:17;99148.69;;;5.64;70.48
46598;BME280;32318;48.858;8.252;2024-03-08T22:05:19;99140.91;;;5.62;70.31
46598;BME280;32318;48.858;8.252;2024-03-08T22:13:21;99136.59;;;5.61;70.76
46598;BME280;32318;48.858;8.252;2024-03-08T22:21:21;99132.81;;;5.64;71.32
46598;BME280;32318;48.858;8.252;2024-03-08T22:29:21;99124.78;;;5.47;72.32
46598;BME280;32318;48.858;8.252;2024-03-08T22:37:22;99109.91;;;5.46;72.77
46598;BME280;32318;48.858;8.252;2024-03-08T22:45:23;99124.25;;;5.36;73.14
46598;BME280;32318;48.858;8.252;2024-03-08T22:53:23;99136.69;;;5.43;73.57
46598;BME280;32318;48.858;8.252;2024-03-08T23:01:24;99142.19;;;5.50;74.40
46598;BME280;32318;48.858;8.252;2024-03-08T23:09:28;99171.84;;;5.54;75.44
46598;BME280;32318;48.858;8.252;2024-03-08T23:17:29;99191.06;;;5.64;75.77
46598;BME280;32318;48.858;8.252;2024-03-08T23:25:29;99196.56;;;5.71;75.72
46598;BME280;32318;48.858;8.252;2024-03-08T23:33:29;99202.06;;;5.77;75.98
46598;BME280;32318;48.858;8.252;2024-03-08T23:41:30;99213.97;;;5.81;76.24
46598;BME280;32318;48.858;8.252;2024-03-08T23:49:30;99201.91;;;5.79;76.17
46598;BME280;32318;48.858;8.252;2024-03-08T23:57:31;99192.97;;;5.80;76.48
